• Join FlightAware (Why Join?)
  • Login
  • US Flag 
06:48AM EST


 

Airport Tracker/Info


-or-


 

Live Flight TrackerFlight Track Log ✈ TAM3252 ✈ 20-May-2013 ✈ SBSP / CGH - SBGL / GIG

Flight Track Log - Related Links

Times and Time Zones

All times are in EDT time to prevent confusion due to time zone crossing. See the TAM3252 flight status page for this flight to view local times or setup timezone preferences in your user account.

Time Position Orientation Groundspeed Altitude Reporting Facility
EDT Latitude Longitude Course Direction KTS MPH feet Rate Location/Type
06:10AM -23.5960 -46.6740 330° Northwest 176 203 3,700  Level FlightAware
06:11AM -23.5800 -46.6650 27° Northeast 210 242 3,900 840 Climbing FlightAware
06:11AM -23.5740 -46.6520 63° Northeast 221 254 4,200 1,020 Climbing FlightAware
06:12AM -23.5860 -46.6220 114° Southeast 209 241 4,700 960 Climbing FlightAware
06:12AM -23.6050 -46.6080 146° Southeast 209 241 5,100 1,020 Climbing FlightAware
06:12AM -23.6190 -46.5980 147° Southeast 214 246 5,400 780 Climbing FlightAware
06:12AM -23.6290 -46.5860 132° Southeast 243 280 5,500 360 Climbing FlightAware
06:13AM -23.6330 -46.5660 102° East 277 319 5,600 360 Climbing FlightAware
06:13AM -23.6340 -46.5460 93° East 292 336 5,700 720 Climbing FlightAware
06:13AM -23.6330 -46.5060 88° East 299 344 6,100 2,040 Climbing FlightAware
06:14AM -23.6320 -46.4600 89° East 304 350 7,600 2,880 Climbing FlightAware
06:14AM -23.6330 -46.4150 91° East 308 354 9,000 2,520 Climbing FlightAware
06:14AM -23.6330 -46.4110 90° East 309 356 9,100 2,400 Climbing FlightAware
06:15AM -23.6270 -46.3780 79° East 318 366 10,000 1,800 Climbing FlightAware
06:15AM -23.6040 -46.3150 68° East 359 413 10,900 1,500 Climbing FlightAware
06:16AM -23.5750 -46.2310 69° East 390 449 12,200 1,920 Climbing FlightAware
06:17AM -23.5480 -46.1570 68° East 403 464 13,700 2,760 Climbing FlightAware
06:18AM -23.5200 -46.0810 68° East 389 448 15,900 3,300 Climbing FlightAware
06:18AM -23.4940 -46.0110 68° East 370 426 18,100 2,100 Climbing FlightAware
06:19AM -23.4700 -45.9470 68° East 396 456 18,700 660 Climbing FlightAware
06:20AM -23.4340 -45.8640 65° Northeast 433 498 19,100 720 Climbing FlightAware
06:20AM -23.3960 -45.7840 63° Northeast 452 520 19,800 1,320 Climbing FlightAware
06:21AM -23.3500 -45.6870 63° Northeast 461 531 21,100 2,040 Climbing FlightAware
06:22AM -23.3080 -45.5990 63° Northeast 447 514 22,900 2,640 Climbing FlightAware
06:22AM -23.2750 -45.5290 63° Northeast 435 501 24,400 2,040 Climbing FlightAware
06:23AM -23.2300 -45.4350 62° Northeast 436 502 25,800 1,200 Climbing FlightAware
06:24AM -23.1960 -45.3620 63° Northeast 458 527 26,100 840 Climbing FlightAware
06:25AM -23.1480 -45.2630 62° Northeast 458 527 27,000 600 Climbing FlightAware
06:25AM -23.1110 -45.1850 63° Northeast 454 522 27,000 -120 Level FlightAware
06:26AM -23.0820 -45.0970 70° East 454 522 26,900 -2,040 Descending FlightAware
06:27AM -23.0450 -44.9220 77° East 466 536 23,200 -2,460 Descending FlightAware
06:28AM -23.0100 -44.7670 76° East 442 509 21,000 -1,380 Descending FlightAware
06:29AM -22.9890 -44.6700 77° East 438 504 20,500 -360 Descending FlightAware
06:30AM -22.9740 -44.5970 77° East 438 504 20,500  Level FlightAware
06:31AM -22.9580 -44.5240 77° East 438 504 20,500  Level FlightAware
06:31AM -22.9390 -44.4330 77° East 438 504 20,500  Level FlightAware
06:32AM -22.9230 -44.3600 77° East 438 504 20,500 -2,160 Level FlightAware
06:35AM -22.8944 -44.0726 84° East  Level Estimated
06:36AM -22.8826 -43.9561 84° East  Level Estimated
06:37AM -22.8708 -43.8396 84° East  Level Estimated
06:37AM -22.8100 -43.8780 84° East 305 351 9,000  Level FlightAware
06:37AM -22.7970 -43.8220 76° East 282 325 8,600 -900 Descending FlightAware
06:38AM -22.7900 -43.7920 76° East 270 311 8,200 -660 Descending FlightAware
06:38AM -22.7810 -43.7520 76° East 269 310 8,000 -240 Descending FlightAware
06:39AM -22.7730 -43.7180 76° East 269 310 8,000 -1,560 Level FlightAware
06:39AM -22.7680 -43.6970 76° East 269 310 6,700 -2,400 Descending FlightAware
06:39AM -22.7610 -43.6650 77° East 269 310 6,200 -660 Descending FlightAware
06:40AM -22.7530 -43.6340 74° East 269 310 6,100 -1,200 Descending FlightAware
06:41AM -22.7350 -43.5530 76° East 250 288 4,600 -1,380 Descending FlightAware
06:41AM -22.7310 -43.5350 76° East 238 274 4,400 -300 Descending FlightAware
06:41AM -22.7260 -43.5110 77° East 225 259 4,400  Level FlightAware
06:42AM -22.7200 -43.4880 74° East 217 250 4,400  Level FlightAware
06:42AM -22.7140 -43.4620 76° East 217 250 4,400 -1,080 Level FlightAware
06:43AM -22.7210 -43.4420 111° Southeast 216 249 3,600 -1,620 Descending FlightAware
06:43AM -22.7230 -43.4110 94° East 207 238 3,200 -600 Descending FlightAware
06:43AM -22.7290 -43.3910 108° East 197 227 3,100 -1,140 Descending FlightAware
06:44AM -22.7460 -43.3640 124° Southeast 179 206 2,100 -1,500 Descending FlightAware
06:44AM -22.7460 -43.3630 90° East 178 205 2,100 -900 Level FlightAware
06:45AM -22.7640 -43.3380 128° Southeast 154 177 1,500 -900 Descending FlightAware
06:45AM -22.7650 -43.3350 110° East 153 176 1,500 -900 Level FlightAware
06:45AM -22.7810 -43.3110 126° Southeast 144 166 900 -600 Descending FlightAware
06:46AM -22.7900 -43.2980 127° Southeast 144 166 900  Level FlightAware
06:48AM -22.8089 -43.2436 111° Southeast  Level Estimated